Time;durP1;ratioP1;P1;durP2;ratioP2;P2;SDS_P1;SDS_P2;PMS_P1;PMS_P2;Temp;Humidity;BMP_temperature;BMP_pressure;BME280_temperature;BME280_humidity;BME280_pressure;Samples;Min_cycle;Max_cycle;Signal;HPM_P1;HPM_P2
2023/09/27 00:00:55;;;;;;;7.80;4.40;;;;;;;;;;5099936;28;20205;-76
2023/09/27 00:03:22;;;;;;;8.00;3.70;;;;;;;;;;5095144;28;20203;-77
2023/09/27 00:05:49;;;;;;;6.33;3.90;;;;;;;;;;5099629;28;20200;-76
2023/09/27 00:08:16;;;;;;;6.00;4.00;;;;;;;;;;5090577;28;20291;-76
2023/09/27 00:10:43;;;;;;;7.73;4.20;;;;;;;;;;5102210;28;20669;-76
2023/09/27 00:13:11;;;;;;;8.70;4.43;;;;;;;;;;5110655;28;20203;-77
2023/09/27 00:15:38;;;;;;;5.90;4.30;;;;;;;;;;5111159;28;20230;-76
2023/09/27 00:18:05;;;;;;;7.10;3.87;;;;;;;;;;5091710;28;20654;-76
2023/09/27 00:20:32;;;;;;;6.80;4.27;;;;;;;;;;5090686;28;20204;-77
2023/09/27 00:22:59;;;;;;;7.60;4.03;;;;;;;;;;5095771;28;20210;-76
2023/09/27 00:25:27;;;;;;;8.10;4.60;;;;;;;;;;5111402;28;20281;-76
2023/09/27 00:27:53;;;;;;;7.50;4.43;;;;;;;;;;5110145;28;20202;-76
2023/09/27 00:30:22;;;;;;;6.10;4.37;;;;;;;;;;5098497;28;20200;-76
2023/09/27 00:32:48;;;;;;;4.90;4.40;;;;;;;;;;5103819;28;20717;-76
2023/09/27 00:35:19;;;;;;;6.37;4.20;;;;;;;;;;5090909;28;20227;-77
2023/09/27 00:37:46;;;;;;;11.77;4.40;;;;;;;;;;5090096;28;20208;-77
2023/09/27 00:40:15;;;;;;;6.07;3.80;;;;;;;;;;5090551;28;20287;-76
2023/09/27 00:42:41;;;;;;;9.67;4.73;;;;;;;;;;5097772;28;20253;-76
2023/09/27 00:45:09;;;;;;;6.83;3.70;;;;;;;;;;5110762;28;20204;-76
2023/09/27 00:47:38;;;;;;;5.50;4.57;;;;;;;;;;5103275;28;20197;-76
2023/09/27 00:50:08;;;;;;;6.20;3.70;;;;;;;;;;5090457;28;20207;-76
2023/09/27 00:52:36;;;;;;;6.57;4.53;;;;;;;;;;5099644;28;20203;-76
2023/09/27 00:55:02;;;;;;;12.73;4.03;;;;;;;;;;5096945;28;20220;-76
2023/09/27 00:57:29;;;;;;;7.67;4.20;;;;;;;;;;5110469;28;20649;-76
2023/09/27 00:59:56;;;;;;;10.37;4.13;;;;;;;;;;5094926;28;20196;-76
2023/09/27 01:02:23;;;;;;;5.73;3.40;;;;;;;;;;5089972;28;20671;-76
2023/09/27 01:04:52;;;;;;;5.90;3.70;;;;;;;;;;5093432;28;20196;-76
2023/09/27 01:07:19;;;;;;;5.30;3.83;;;;;;;;;;5100507;28;20201;-76
2023/09/27 01:09:46;;;;;;;4.30;3.90;;;;;;;;;;5104180;28;20196;-76
2023/09/27 01:12:12;;;;;;;5.93;3.87;;;;;;;;;;5089852;28;20243;-76
2023/09/27 01:14:39;;;;;;;5.37;3.67;;;;;;;;;;5090299;28;20212;-76
2023/09/27 01:17:10;;;;;;;7.80;3.50;;;;;;;;;;5090227;28;20201;-76
2023/09/27 01:19:38;;;;;;;10.20;3.80;;;;;;;;;;5092156;28;20199;-76
2023/09/27 01:22:06;;;;;;;4.87;3.50;;;;;;;;;;5105594;28;20272;-76
2023/09/27 01:24:37;;;;;;;7.27;3.50;;;;;;;;;;5095368;28;20204;-76
2023/09/27 01:27:06;;;;;;;6.27;3.47;;;;;;;;;;5105763;28;20277;-76
2023/09/27 01:29:33;;;;;;;7.77;4.10;;;;;;;;;;5094222;28;20208;-76
2023/09/27 01:32:00;;;;;;;8.90;4.00;;;;;;;;;;5093845;28;20204;-76
2023/09/27 01:34:27;;;;;;;9.50;3.97;;;;;;;;;;5099455;28;20682;-76
2023/09/27 01:36:55;;;;;;;9.30;4.57;;;;;;;;;;5100306;28;20679;-76
2023/09/27 01:39:24;;;;;;;6.07;3.90;;;;;;;;;;5093415;28;20683;-76
2023/09/27 01:41:52;;;;;;;8.87;4.40;;;;;;;;;;5093517;28;20234;-76
2023/09/27 01:44:19;;;;;;;12.97;4.33;;;;;;;;;;5106403;28;20200;-76
2023/09/27 01:46:46;;;;;;;6.23;3.60;;;;;;;;;;5092787;28;20291;-76
2023/09/27 01:49:12;;;;;;;15.67;4.10;;;;;;;;;;5093474;28;20192;-76
2023/09/27 01:51:39;;;;;;;4.80;3.67;;;;;;;;;;5093083;28;20200;-76
2023/09/27 01:54:06;;;;;;;5.83;3.50;;;;;;;;;;5093642;28;20208;-76
2023/09/27 01:56:33;;;;;;;4.83;4.27;;;;;;;;;;5094333;28;20228;-76
2023/09/27 01:59:01;;;;;;;9.40;3.87;;;;;;;;;;5105661;28;20668;-76
2023/09/27 02:01:28;;;;;;;6.80;4.17;;;;;;;;;;5092846;28;20214;-76
2023/09/27 02:03:55;;;;;;;8.23;3.57;;;;;;;;;;5093008;28;20203;-76
2023/09/27 02:06:23;;;;;;;13.03;4.83;;;;;;;;;;5092872;28;20623;-76
2023/09/27 02:08:49;;;;;;;9.60;4.20;;;;;;;;;;5092764;28;20585;-76
2023/09/27 02:11:16;;;;;;;5.90;4.13;;;;;;;;;;5092691;28;20228;-76
2023/09/27 02:13:43;;;;;;;6.97;4.63;;;;;;;;;;5102651;28;20741;-76
2023/09/27 02:16:11;;;;;;;8.37;3.53;;;;;;;;;;5096217;28;20223;-76
2023/09/27 02:18:39;;;;;;;4.43;3.30;;;;;;;;;;5092637;28;20209;-75
2023/09/27 02:21:06;;;;;;;8.53;3.60;;;;;;;;;;5093073;28;20200;-75
2023/09/27 02:23:32;;;;;;;6.10;4.10;;;;;;;;;;5102951;28;20210;-76
2023/09/27 02:25:59;;;;;;;9.33;4.80;;;;;;;;;;5112660;28;20241;-76
2023/09/27 02:28:26;;;;;;;8.50;5.10;;;;;;;;;;5112579;28;20195;-76
2023/09/27 02:30:53;;;;;;;8.50;4.83;;;;;;;;;;5112599;28;20596;-76
2023/09/27 02:33:22;;;;;;;6.60;4.03;;;;;;;;;;5102507;28;20205;-76
2023/09/27 02:35:49;;;;;;;9.23;3.87;;;;;;;;;;5092432;28;20637;-76
2023/09/27 02:38:15;;;;;;;7.00;4.37;;;;;;;;;;5092291;28;20208;-75
2023/09/27 02:40:42;;;;;;;7.87;4.30;;;;;;;;;;5096789;28;20199;-76
2023/09/27 02:43:09;;;;;;;5.87;3.83;;;;;;;;;;5105287;28;20286;-75
2023/09/27 02:45:36;;;;;;;7.77;4.20;;;;;;;;;;5105938;28;20674;-76
2023/09/27 02:48:03;;;;;;;9.40;4.50;;;;;;;;;;5111125;28;20253;-76
2023/09/27 02:50:32;;;;;;;9.73;4.30;;;;;;;;;;5105867;28;20203;-76
2023/09/27 02:52:59;;;;;;;4.13;3.70;;;;;;;;;;5106030;28;20188;-76
2023/09/27 02:55:26;;;;;;;6.50;3.90;;;;;;;;;;5105698;28;20637;-76
2023/09/27 02:57:53;;;;;;;8.33;3.97;;;;;;;;;;5092049;28;20288;-76
2023/09/27 03:00:20;;;;;;;7.00;4.23;;;;;;;;;;5092600;28;20204;-76
2023/09/27 03:02:48;;;;;;;8.10;4.77;;;;;;;;;;5104343;28;20686;-76
2023/09/27 03:05:15;;;;;;;6.67;4.33;;;;;;;;;;5103878;28;20207;-75
2023/09/27 03:07:45;;;;;;;6.33;4.40;;;;;;;;;;5104831;28;20211;-76
2023/09/27 03:10:11;;;;;;;8.07;4.80;;;;;;;;;;5091462;28;20670;-76
2023/09/27 03:12:39;;;;;;;8.47;4.50;;;;;;;;;;5091755;28;20319;-76
2023/09/27 03:15:11;;;;;;;8.00;3.87;;;;;;;;;;5091214;28;20240;-75
2023/09/27 03:17:38;;;;;;;10.03;4.83;;;;;;;;;;5099763;28;20196;-75
2023/09/27 03:20:09;;;;;;;8.33;4.63;;;;;;;;;;5096290;28;20200;-75
2023/09/27 03:22:36;;;;;;;5.67;4.30;;;;;;;;;;5104650;28;20578;-75
2023/09/27 03:25:05;;;;;;;7.33;3.53;;;;;;;;;;5091356;28;20234;-76
2023/09/27 03:27:32;;;;;;;9.17;4.53;;;;;;;;;;5090444;28;20200;-76
2023/09/27 03:29:59;;;;;;;6.07;4.17;;;;;;;;;;5091712;28;20208;-76
2023/09/27 03:32:25;;;;;;;9.10;4.43;;;;;;;;;;5104528;28;20192;-76
2023/09/27 03:34:52;;;;;;;6.30;4.53;;;;;;;;;;5094174;28;20204;-75
2023/09/27 03:37:20;;;;;;;10.37;5.00;;;;;;;;;;5094306;28;20229;-75
2023/09/27 03:39:49;;;;;;;6.43;4.93;;;;;;;;;;5101277;28;20211;-75
2023/09/27 03:42:17;;;;;;;7.70;3.83;;;;;;;;;;5090780;28;20197;-75
2023/09/27 03:44:44;;;;;;;7.37;4.33;;;;;;;;;;5089273;28;20227;-75
2023/09/27 03:47:11;;;;;;;8.63;4.40;;;;;;;;;;5090366;28;20207;-75
2023/09/27 03:49:38;;;;;;;7.23;5.23;;;;;;;;;;5091616;28;20600;-75
2023/09/27 03:52:05;;;;;;;7.90;4.10;;;;;;;;;;5090837;28;20207;-75
2023/09/27 03:54:32;;;;;;;11.30;4.60;;;;;;;;;;5091310;28;20273;-75
2023/09/27 03:56:59;;;;;;;6.50;4.47;;;;;;;;;;5103898;28;20702;-75
2023/09/27 03:59:27;;;;;;;7.57;4.67;;;;;;;;;;5103966;28;20589;-75
2023/09/27 04:01:54;;;;;;;6.70;4.63;;;;;;;;;;5110644;28;20207;-75
2023/09/27 04:04:20;;;;;;;6.87;4.37;;;;;;;;;;5098233;28;20211;-75
2023/09/27 04:06:49;;;;;;;10.33;5.40;;;;;;;;;;5104374;28;20203;-75
2023/09/27 04:09:16;;;;;;;8.07;4.47;;;;;;;;;;5091057;28;20667;-75
2023/09/27 04:11:43;;;;;;;5.87;3.83;;;;;;;;;;5100553;28;20291;-75
2023/09/27 04:14:11;;;;;;;10.13;4.57;;;;;;;;;;5110772;28;20206;-75
2023/09/27 04:16:39;;;;;;;4.73;4.23;;;;;;;;;;5104578;28;20375;-75
2023/09/27 04:19:08;;;;;;;14.83;4.77;;;;;;;;;;5090705;28;20202;-75
2023/09/27 04:21:34;;;;;;;11.10;4.17;;;;;;;;;;5097257;28;20675;-75
2023/09/27 04:24:03;;;;;;;5.47;4.10;;;;;;;;;;5097081;28;20249;-75
2023/09/27 04:26:31;;;;;;;6.53;4.40;;;;;;;;;;5106298;28;20235;-76
2023/09/27 04:28:57;;;;;;;6.80;4.10;;;;;;;;;;5104147;28;20200;-75
2023/09/27 04:31:24;;;;;;;9.57;4.77;;;;;;;;;;5109539;28;20209;-75
2023/09/27 04:33:52;;;;;;;8.37;4.50;;;;;;;;;;5108206;28;20206;-75
2023/09/27 04:36:19;;;;;;;6.53;4.77;;;;;;;;;;5110450;28;20202;-75
2023/09/27 04:38:49;;;;;;;5.93;3.97;;;;;;;;;;5097574;28;20734;-75
2023/09/27 04:41:16;;;;;;;7.77;4.53;;;;;;;;;;5101940;28;20681;-75
2023/09/27 04:43:43;;;;;;;10.20;4.90;;;;;;;;;;5088483;28;20206;-75
2023/09/27 04:46:12;;;;;;;9.43;5.53;;;;;;;;;;5093047;28;20313;-75
2023/09/27 04:48:39;;;;;;;9.33;4.87;;;;;;;;;;5095412;28;20200;-75
2023/09/27 04:51:07;;;;;;;7.67;4.50;;;;;;;;;;5093832;28;20570;-75
2023/09/27 04:53:37;;;;;;;8.00;4.73;;;;;;;;;;5098512;28;20211;-75
2023/09/27 04:56:04;;;;;;;7.47;4.23;;;;;;;;;;5094558;28;20265;-75
2023/09/27 04:58:31;;;;;;;9.43;4.77;;;;;;;;;;5107598;28;20203;-75
2023/09/27 05:00:57;;;;;;;10.17;4.80;;;;;;;;;;5094444;28;20203;-75
2023/09/27 05:03:24;;;;;;;8.37;4.47;;;;;;;;;;5094246;28;20199;-75
2023/09/27 05:05:51;;;;;;;9.20;4.43;;;;;;;;;;5114420;28;20219;-75
2023/09/27 05:08:19;;;;;;;6.30;4.17;;;;;;;;;;5113753;28;20225;-76
2023/09/27 05:10:46;;;;;;;7.30;4.27;;;;;;;;;;5101672;28;20211;-75
2023/09/27 05:13:13;;;;;;;11.73;6.20;;;;;;;;;;5099638;28;20603;-76
2023/09/27 05:15:40;;;;;;;5.43;4.07;;;;;;;;;;5101786;28;20600;-75
2023/09/27 05:18:07;;;;;;;8.93;5.03;;;;;;;;;;5113049;28;20203;-75
2023/09/27 05:20:36;;;;;;;7.97;4.30;;;;;;;;;;5093787;28;20227;-75
2023/09/27 05:23:03;;;;;;;6.73;3.87;;;;;;;;;;5099149;28;20198;-75
2023/09/27 05:25:31;;;;;;;8.27;4.17;;;;;;;;;;5114421;28;20195;-76
2023/09/27 05:27:58;;;;;;;10.83;5.87;;;;;;;;;;5099981;28;20287;-75
2023/09/27 05:30:27;;;;;;;8.60;3.97;;;;;;;;;;5114035;28;20199;-75
2023/09/27 05:32:54;;;;;;;4.77;4.07;;;;;;;;;;5113838;28;20206;-76
2023/09/27 05:35:21;;;;;;;6.27;4.13;;;;;;;;;;5100121;28;20223;-76
2023/09/27 05:37:49;;;;;;;8.80;4.10;;;;;;;;;;5100928;28;20200;-75
2023/09/27 05:40:17;;;;;;;13.37;3.97;;;;;;;;;;5113070;28;20566;-75
2023/09/27 05:42:46;;;;;;;6.50;3.97;;;;;;;;;;5105853;28;20211;-75
2023/09/27 05:45:13;;;;;;;6.73;4.33;;;;;;;;;;5094788;28;20234;-75
2023/09/27 05:47:40;;;;;;;5.60;4.07;;;;;;;;;;5105512;28;20224;-75
2023/09/27 05:50:09;;;;;;;6.10;3.80;;;;;;;;;;5094323;28;20207;-75
2023/09/27 05:52:36;;;;;;;9.90;4.97;;;;;;;;;;5105444;28;20287;-75
2023/09/27 05:55:05;;;;;;;8.60;4.17;;;;;;;;;;5108251;28;20446;-75
2023/09/27 05:57:32;;;;;;;9.27;4.73;;;;;;;;;;5113305;28;20287;-75
2023/09/27 06:00:00;;;;;;;5.13;4.17;;;;;;;;;;5099148;28;20222;-75
2023/09/27 06:02:30;;;;;;;8.10;4.43;;;;;;;;;;5113530;28;20195;-76
2023/09/27 06:04:59;;;;;;;7.53;4.20;;;;;;;;;;5099677;28;20195;-76
2023/09/27 06:07:26;;;;;;;6.63;4.07;;;;;;;;;;5113506;28;20219;-75
2023/09/27 06:09:52;;;;;;;5.90;3.90;;;;;;;;;;5109516;28;20659;-75
2023/09/27 06:12:19;;;;;;;6.47;4.90;;;;;;;;;;5092993;28;20228;-76
2023/09/27 06:14:46;;;;;;;14.87;3.90;;;;;;;;;;5096827;28;20685;-75
2023/09/27 06:17:16;;;;;;;8.97;4.77;;;;;;;;;;5102070;28;20201;-76
2023/09/27 06:19:42;;;;;;;9.40;4.20;;;;;;;;;;5092456;28;20206;-76
2023/09/27 06:22:10;;;;;;;7.03;4.10;;;;;;;;;;5092781;28;20621;-75
2023/09/27 06:24:40;;;;;;;5.23;3.80;;;;;;;;;;5092924;28;20283;-75
2023/09/27 06:27:07;;;;;;;6.17;3.83;;;;;;;;;;5092032;28;20259;-75
2023/09/27 06:29:33;;;;;;;7.77;4.10;;;;;;;;;;5112600;28;20195;-75
2023/09/27 06:32:00;;;;;;;7.27;4.57;;;;;;;;;;5099282;28;20208;-76
2023/09/27 06:34:28;;;;;;;5.20;4.40;;;;;;;;;;5112704;28;20207;-75
2023/09/27 06:36:56;;;;;;;5.30;4.30;;;;;;;;;;5098721;28;20278;-76
2023/09/27 06:39:23;;;;;;;9.67;4.53;;;;;;;;;;5105676;28;20204;-75
2023/09/27 06:41:50;;;;;;;5.83;4.10;;;;;;;;;;5092851;28;20686;-75
2023/09/27 06:44:18;;;;;;;11.37;3.80;;;;;;;;;;5104763;28;20193;-75
2023/09/27 06:46:46;;;;;;;6.77;3.87;;;;;;;;;;5091923;28;20224;-75
2023/09/27 06:49:13;;;;;;;14.77;4.37;;;;;;;;;;5100419;28;20195;-75
2023/09/27 06:51:41;;;;;;;7.50;3.53;;;;;;;;;;5096981;28;20650;-76
2023/09/27 06:54:08;;;;;;;7.53;4.50;;;;;;;;;;5092537;28;20196;-76
2023/09/27 06:56:35;;;;;;;7.70;4.20;;;;;;;;;;5107604;28;20231;-75
2023/09/27 06:59:02;;;;;;;8.63;4.07;;;;;;;;;;5103230;28;20674;-76
2023/09/27 07:01:29;;;;;;;5.40;3.83;;;;;;;;;;5093763;28;20227;-76
2023/09/27 07:03:57;;;;;;;6.30;3.77;;;;;;;;;;5112191;28;20199;-75
2023/09/27 07:06:23;;;;;;;7.97;4.67;;;;;;;;;;5108786;28;20268;-76
2023/09/27 07:08:57;;;;;;;7.77;3.50;;;;;;;;;;5101390;28;20200;-76
2023/09/27 07:11:24;;;;;;;9.80;4.10;;;;;;;;;;5111386;28;20235;-75
2023/09/27 07:13:51;;;;;;;4.30;3.53;;;;;;;;;;5112131;28;20693;-75
2023/09/27 07:16:26;;;;;;;6.60;3.90;;;;;;;;;;5107023;28;20279;-76
2023/09/27 07:18:52;;;;;;;4.73;3.70;;;;;;;;;;5103895;28;20194;-75
2023/09/27 07:21:20;;;;;;;8.53;3.77;;;;;;;;;;5097219;28;20199;-75
2023/09/27 07:23:47;;;;;;;8.10;3.97;;;;;;;;;;5112044;28;20651;-75
2023/09/27 07:26:16;;;;;;;8.00;3.80;;;;;;;;;;5106395;28;20583;-76
2023/09/27 07:28:43;;;;;;;5.50;3.30;;;;;;;;;;5091180;28;20287;-75
2023/09/27 07:31:12;;;;;;;10.80;4.07;;;;;;;;;;5097738;28;20622;-76
2023/09/27 07:33:39;;;;;;;7.63;3.80;;;;;;;;;;5111605;28;20210;-76
2023/09/27 07:36:08;;;;;;;8.67;3.53;;;;;;;;;;5091196;28;20204;-75
2023/09/27 07:38:35;;;;;;;6.23;3.87;;;;;;;;;;5091141;28;20200;-76
2023/09/27 07:41:02;;;;;;;4.23;3.50;;;;;;;;;;5091010;28;20614;-76
2023/09/27 07:43:30;;;;;;;6.33;3.70;;;;;;;;;;5105251;28;20207;-76
2023/09/27 07:45:59;;;;;;;7.03;4.10;;;;;;;;;;5104034;28;20205;-76
2023/09/27 07:48:26;;;;;;;10.87;4.67;;;;;;;;;;5092222;28;20576;-76
2023/09/27 07:50:54;;;;;;;6.97;4.03;;;;;;;;;;5102987;28;20614;-76
2023/09/27 07:53:21;;;;;;;6.43;4.30;;;;;;;;;;5106503;28;20647;-76
2023/09/27 07:55:50;;;;;;;9.07;3.93;;;;;;;;;;5102456;28;20210;-76
2023/09/27 07:58:17;;;;;;;4.80;3.70;;;;;;;;;;5106700;28;20204;-76
2023/09/27 08:00:47;;;;;;;13.83;3.50;;;;;;;;;;5111184;28;20210;-76
2023/09/27 08:03:15;;;;;;;5.00;3.50;;;;;;;;;;5107741;28;20202;-76
2023/09/27 08:05:45;;;;;;;8.60;4.07;;;;;;;;;;5091046;28;20210;-76
2023/09/27 08:08:13;;;;;;;8.90;3.83;;;;;;;;;;5090489;28;20220;-76
2023/09/27 08:10:43;;;;;;;7.30;3.40;;;;;;;;;;5090491;28;20211;-76
2023/09/27 08:13:13;;;;;;;4.33;3.43;;;;;;;;;;5090614;28;20200;-76
2023/09/27 08:15:41;;;;;;;5.27;3.50;;;;;;;;;;5090891;28;20228;-76
2023/09/27 08:18:09;;;;;;;4.70;4.27;;;;;;;;;;5104069;28;20204;-76
2023/09/27 08:20:36;;;;;;;5.80;3.07;;;;;;;;;;5090742;28;20211;-76
2023/09/27 08:23:03;;;;;;;7.77;3.70;;;;;;;;;;5104410;28;20605;-76
2023/09/27 08:25:30;;;;;;;6.40;3.63;;;;;;;;;;5103330;28;20281;-76
2023/09/27 08:27:57;;;;;;;8.53;3.50;;;;;;;;;;5098870;28;20215;-76
2023/09/27 08:30:24;;;;;;;7.20;3.33;;;;;;;;;;5102451;28;20196;-76
2023/09/27 08:32:51;;;;;;;7.57;3.70;;;;;;;;;;5107931;28;20199;-75
2023/09/27 08:35:19;;;;;;;4.80;3.37;;;;;;;;;;5107916;28;20199;-76
2023/09/27 08:37:46;;;;;;;8.50;3.53;;;;;;;;;;5101223;28;20218;-76
2023/09/27 08:40:13;;;;;;;10.27;3.60;;;;;;;;;;5115083;28;20203;-76
2023/09/27 08:42:41;;;;;;;6.87;3.00;;;;;;;;;;5107736;28;20695;-76
2023/09/27 08:45:12;;;;;;;9.00;3.17;;;;;;;;;;5094970;28;20208;-76
2023/09/27 08:47:41;;;;;;;6.33;3.87;;;;;;;;;;5106941;28;20220;-76
2023/09/27 08:50:08;;;;;;;6.00;3.03;;;;;;;;;;5094385;28;20231;-76
2023/09/27 08:52:37;;;;;;;5.97;3.17;;;;;;;;;;5093861;28;20253;-76
2023/09/27 08:55:07;;;;;;;10.13;3.47;;;;;;;;;;5109922;28;20208;-76
2023/09/27 08:57:37;;;;;;;11.87;4.40;;;;;;;;;;5114465;28;20199;-75
2023/09/27 09:00:13;;;;;;;6.97;3.13;;;;;;;;;;5114369;28;20660;-76
2023/09/27 09:02:41;;;;;;;6.53;2.97;;;;;;;;;;5114217;28;20210;-76
2023/09/27 09:05:11;;;;;;;7.15;3.20;;;;;;;;;;5096316;28;20277;-76
2023/09/27 09:07:40;;;;;;;7.38;3.17;;;;;;;;;;5106172;28;20215;-76
2023/09/27 09:10:10;;;;;;;7.53;2.92;;;;;;;;;;5114047;28;20677;-76
2023/09/27 09:12:38;;;;;;;5.22;2.95;;;;;;;;;;5100880;28;20228;-76
2023/09/27 09:15:06;;;;;;;10.27;3.97;;;;;;;;;;5093874;28;20253;-76
2023/09/27 09:17:36;;;;;;;14.07;4.78;;;;;;;;;;5107343;28;20211;-76
2023/09/27 09:20:15;;;;;;;8.57;3.38;;;;;;;;;;5114725;28;20249;-76
2023/09/27 09:22:44;;;;;;;4.13;3.08;;;;;;;;;;5110942;28;20207;-76
2023/09/27 09:25:11;;;;;;;4.05;3.42;;;;;;;;;;5104483;28;20206;-76
2023/09/27 09:27:38;;;;;;;3.85;3.40;;;;;;;;;;5099750;28;20758;-76
2023/09/27 09:30:07;;;;;;;5.03;2.55;;;;;;;;;;5113835;28;20199;-76
2023/09/27 09:32:35;;;;;;;9.18;3.58;;;;;;;;;;5113488;28;20244;-76
2023/09/27 09:35:02;;;;;;;6.30;3.03;;;;;;;;;;5102785;28;20212;-76
2023/09/27 09:37:30;;;;;;;6.72;3.10;;;;;;;;;;5093480;28;20200;-76
2023/09/27 09:40:14;;;;;;;7.53;2.80;;;;;;;;;;5092721;28;20240;-76
2023/09/27 09:42:42;;;;;;;6.75;3.05;;;;;;;;;;5114077;28;20199;-76
2023/09/27 09:45:12;;;;;;;4.25;3.15;;;;;;;;;;5113617;28;20200;-76
2023/09/27 09:47:39;;;;;;;6.43;3.05;;;;;;;;;;5105629;28;20713;-76
2023/09/27 09:50:16;;;;;;;9.85;3.67;;;;;;;;;;5106811;28;20199;-76
2023/09/27 09:52:49;;;;;;;6.10;3.28;;;;;;;;;;5103232;28;20235;-76
2023/09/27 09:55:20;;;;;;;10.13;3.53;;;;;;;;;;5100248;28;20200;-76
2023/09/27 09:57:48;;;;;;;6.63;3.13;;;;;;;;;;5101822;28;20287;-76
2023/09/27 10:00:17;;;;;;;4.20;3.28;;;;;;;;;;5098067;28;20200;-76
2023/09/27 10:02:53;;;;;;;3.50;3.20;;;;;;;;;;5101200;28;20261;-76
2023/09/27 10:05:20;;;;;;;6.97;3.25;;;;;;;;;;5099989;28;20199;-76
2023/09/27 10:07:48;;;;;;;4.13;3.42;;;;;;;;;;5112377;28;20264;-76
2023/09/27 10:10:19;;;;;;;3.03;2.78;;;;;;;;;;5100374;28;20196;-76
2023/09/27 10:12:47;;;;;;;7.25;2.90;;;;;;;;;;5112849;28;20227;-76
2023/09/27 10:15:14;;;;;;;8.45;2.85;;;;;;;;;;5112972;28;20256;-76
2023/09/27 10:17:41;;;;;;;6.20;3.45;;;;;;;;;;5097720;28;20212;-76
2023/09/27 10:20:13;;;;;;;3.53;3.22;;;;;;;;;;5092908;28;20196;-76
2023/09/27 10:22:41;;;;;;;3.22;2.65;;;;;;;;;;5092766;28;20200;-76
2023/09/27 10:25:33;;;;;;;6.13;3.47;;;;;;;;;;5092918;28;20235;-76
2023/09/27 10:28:13;;;;;;;6.28;3.65;;;;;;;;;;5105748;28;20643;-76
2023/09/27 10:31:05;;;;;;;8.13;3.30;;;;;;;;;;5107814;28;20195;-76
2023/09/27 10:33:32;;;;;;;6.27;2.33;;;;;;;;;;5101133;28;20239;-75
2023/09/27 10:36:32;;;;;;;3.60;2.73;;;;;;;;;;5097581;28;20192;-76
2023/09/27 10:39:05;;;;;;;3.90;2.77;;;;;;;;;;5097128;28;20252;-75
2023/09/27 10:41:47;;;;;;;5.20;2.85;;;;;;;;;;5112683;28;20200;-76
2023/09/27 10:44:15;;;;;;;2.97;2.50;;;;;;;;;;5099011;28;20204;-76
2023/09/27 10:46:42;;;;;;;3.78;3.03;;;;;;;;;;5098649;28;20636;-76
2023/09/27 10:49:09;;;;;;;4.22;2.83;;;;;;;;;;5105206;28;20669;-75
2023/09/27 10:51:36;;;;;;;7.75;3.05;;;;;;;;;;5105259;28;20264;-75
2023/09/27 10:54:08;;;;;;;7.75;3.22;;;;;;;;;;5105047;28;20239;-76
2023/09/27 10:56:35;;;;;;;9.38;3.33;;;;;;;;;;5092246;28;20196;-76
2023/09/27 10:59:03;;;;;;;4.18;3.22;;;;;;;;;;5100432;28;20203;-76
2023/09/27 11:01:31;;;;;;;4.13;2.80;;;;;;;;;;5111966;28;20208;-76
2023/09/27 11:03:58;;;;;;;6.78;3.13;;;;;;;;;;5103447;28;20246;-76
2023/09/27 11:06:28;;;;;;;3.85;2.60;;;;;;;;;;5105350;28;20598;-76
2023/09/27 11:09:04;;;;;;;8.13;3.17;;;;;;;;;;5091385;28;20224;-76
2023/09/27 11:11:31;;;;;;;2.95;2.75;;;;;;;;;;5091376;28;20709;-76
2023/09/27 11:13:58;;;;;;;3.30;3.00;;;;;;;;;;5092060;28;20196;-76
2023/09/27 11:16:28;;;;;;;4.90;2.55;;;;;;;;;;5091142;28;20197;-76
2023/09/27 11:18:57;;;;;;;12.15;3.30;;;;;;;;;;5091785;28;20204;-76
2023/09/27 11:21:27;;;;;;;8.93;3.10;;;;;;;;;;5091291;28;20196;-76
2023/09/27 11:23:55;;;;;;;7.68;2.95;;;;;;;;;;5091648;28;20208;-76
2023/09/27 11:26:22;;;;;;;4.72;2.60;;;;;;;;;;5097640;28;20217;-76
2023/09/27 11:28:59;;;;;;;7.57;2.95;;;;;;;;;;5098157;28;20231;-76
2023/09/27 11:31:29;;;;;;;8.52;3.33;;;;;;;;;;5091612;28;20261;-76
2023/09/27 11:34:11;;;;;;;3.58;2.58;;;;;;;;;;5104831;28;20566;-76
2023/09/27 11:36:45;;;;;;;3.90;2.40;;;;;;;;;;5091571;28;20200;-76
2023/09/27 11:39:11;;;;;;;4.28;3.15;;;;;;;;;;5096715;28;20587;-76
2023/09/27 11:41:38;;;;;;;7.95;3.13;;;;;;;;;;5111025;28;20203;-75
2023/09/27 11:44:21;;;;;;;5.60;3.47;;;;;;;;;;5111323;28;20249;-76
2023/09/27 11:46:50;;;;;;;4.78;2.65;;;;;;;;;;5097942;28;20241;-76
2023/09/27 11:49:18;;;;;;;6.10;3.63;;;;;;;;;;5103585;28;20273;-76
2023/09/27 11:51:45;;;;;;;7.85;2.95;;;;;;;;;;5091011;28;20207;-76
2023/09/27 11:54:12;;;;;;;3.58;3.22;;;;;;;;;;5099347;28;20593;-76
2023/09/27 11:56:39;;;;;;;5.97;3.50;;;;;;;;;;5095608;28;20227;-76
2023/09/27 11:59:25;;;;;;;4.93;3.17;;;;;;;;;;5100311;28;20199;-76
2023/09/27 12:01:54;;;;;;;5.57;2.80;;;;;;;;;;5092482;28;20193;-76
2023/09/27 12:04:20;;;;;;;4.70;2.72;;;;;;;;;;5091160;28;20200;-76
2023/09/27 12:06:48;;;;;;;3.40;3.10;;;;;;;;;;5090870;28;20291;-76
2023/09/27 12:09:15;;;;;;;3.30;2.90;;;;;;;;;;5103549;28;20227;-76
2023/09/27 12:11:42;;;;;;;6.20;3.65;;;;;;;;;;5091391;28;20353;-75
2023/09/27 12:14:10;;;;;;;4.22;3.38;;;;;;;;;;5104360;28;20245;-76
2023/09/27 12:16:37;;;;;;;5.53;3.50;;;;;;;;;;5110334;28;20669;-76
2023/09/27 12:19:05;;;;;;;4.75;3.35;;;;;;;;;;5097805;28;20200;-75
2023/09/27 12:21:34;;;;;;;5.45;3.15;;;;;;;;;;5090595;28;20196;-75
2023/09/27 12:24:03;;;;;;;3.75;3.30;;;;;;;;;;5091369;28;20204;-76
2023/09/27 12:26:30;;;;;;;3.05;2.58;;;;;;;;;;5110760;28;20685;-76
2023/09/27 12:28:57;;;;;;;8.05;3.70;;;;;;;;;;5110810;28;20319;-76
2023/09/27 12:31:24;;;;;;;4.00;3.67;;;;;;;;;;5102755;28;20625;-75
2023/09/27 12:34:29;;;;;;;7.00;3.10;;;;;;;;;;5091716;28;20207;-76
2023/09/27 12:36:57;;;;;;;7.18;3.50;;;;;;;;;;5097173;28;20697;-76
2023/09/27 12:39:24;;;;;;;8.02;4.32;;;;;;;;;;5090707;28;20242;-75
2023/09/27 12:41:51;;;;;;;3.55;2.90;;;;;;;;;;5090282;28;20204;-75
2023/09/27 12:44:36;;;;;;;4.95;2.88;;;;;;;;;;5091067;28;20200;-75
2023/09/27 12:47:03;;;;;;;6.63;3.55;;;;;;;;;;5103868;28;20199;-75
2023/09/27 12:49:29;;;;;;;7.03;3.03;;;;;;;;;;5090620;28;20232;-75
2023/09/27 12:51:58;;;;;;;10.95;3.65;;;;;;;;;;5107485;28;20192;-75
2023/09/27 12:54:24;;;;;;;6.18;2.70;;;;;;;;;;5100028;28;20196;-76
2023/09/27 12:56:51;;;;;;;7.50;4.10;;;;;;;;;;5107695;28;20284;-76
2023/09/27 12:59:18;;;;;;;5.75;3.70;;;;;;;;;;5100014;28;20682;-76
2023/09/27 13:01:45;;;;;;;11.25;3.83;;;;;;;;;;5094331;28;20199;-76
2023/09/27 13:04:12;;;;;;;7.20;3.92;;;;;;;;;;5110469;28;20200;-76
2023/09/27 13:06:38;;;;;;;10.80;3.83;;;;;;;;;;5109962;28;20200;-76
2023/09/27 13:09:25;;;;;;;8.85;3.53;;;;;;;;;;5099718;28;20421;-75
2023/09/27 13:11:52;;;;;;;8.38;3.33;;;;;;;;;;5090043;28;20235;-75
2023/09/27 13:14:19;;;;;;;8.47;3.87;;;;;;;;;;5090761;28;20551;-76
2023/09/27 13:16:48;;;;;;;5.68;3.25;;;;;;;;;;5100910;28;20597;-76
2023/09/27 13:19:15;;;;;;;4.22;3.30;;;;;;;;;;5114123;28;20211;-76
2023/09/27 13:22:00;;;;;;;5.32;3.92;;;;;;;;;;5105995;28;20725;-76
2023/09/27 13:24:29;;;;;;;6.03;3.33;;;;;;;;;;5094259;28;20218;-76
2023/09/27 13:26:55;;;;;;;12.30;3.63;;;;;;;;;;5093541;28;20212;-76
2023/09/27 13:29:22;;;;;;;6.38;3.67;;;;;;;;;;5098342;28;20219;-76
2023/09/27 13:31:49;;;;;;;4.55;3.53;;;;;;;;;;5102435;28;20208;-76
2023/09/27 13:34:16;;;;;;;8.73;2.88;;;;;;;;;;5093568;28;20192;-76
2023/09/27 13:37:01;;;;;;;7.70;3.63;;;;;;;;;;5093408;28;20200;-75
2023/09/27 13:42:32;;;;;;;4.35;3.70;;;;;;;;;;5107000;28;20207;-75
2023/09/27 13:44:59;;;;;;;8.93;3.88;;;;;;;;;;5093318;28;20242;-76
2023/09/27 13:47:26;;;;;;;10.68;4.93;;;;;;;;;;5099293;28;20999;-76
2023/09/27 13:49:52;;;;;;;3.58;3.08;;;;;;;;;;5114011;28;20278;-76
2023/09/27 13:52:37;;;;;;;8.48;4.03;;;;;;;;;;5093558;28;20203;-76
2023/09/27 13:55:10;;;;;;;4.88;3.13;;;;;;;;;;5093327;28;20759;-76
2023/09/27 13:57:37;;;;;;;8.95;3.63;;;;;;;;;;5103208;28;20249;-76
2023/09/27 14:03:06;;;;;;;11.38;4.35;;;;;;;;;;5092996;28;20222;-75
2023/09/27 14:05:33;;;;;;;8.38;3.90;;;;;;;;;;5093234;28;20219;-75
2023/09/27 14:08:00;;;;;;;6.05;3.17;;;;;;;;;;5108457;28;20631;-75
2023/09/27 14:10:28;;;;;;;7.20;3.92;;;;;;;;;;5104528;28;20224;-75
2023/09/27 14:13:13;;;;;;;7.77;3.07;;;;;;;;;;5092587;28;20273;-75
2023/09/27 14:15:40;;;;;;;6.20;3.58;;;;;;;;;;5092917;28;20204;-76
2023/09/27 14:18:07;;;;;;;6.78;3.67;;;;;;;;;;5106042;28;20228;-75
2023/09/27 14:20:53;;;;;;;6.68;3.47;;;;;;;;;;5093003;28;20200;-75
2023/09/27 14:23:19;;;;;;;6.72;3.80;;;;;;;;;;5100748;28;20203;-76
2023/09/27 14:25:48;;;;;;;8.60;4.20;;;;;;;;;;5111398;28;20206;-75
2023/09/27 14:28:14;;;;;;;9.70;4.30;;;;;;;;;;5101317;28;20285;-76
2023/09/27 14:30:41;;;;;;;4.32;3.60;;;;;;;;;;5110944;28;20253;-76
2023/09/27 14:39:33;;;;;;;9.80;3.67;;;;;;;;;;5108870;28;20284;-75
2023/09/27 14:42:02;;;;;;;6.17;3.67;;;;;;;;;;5092539;28;20196;-76
2023/09/27 14:44:31;;;;;;;5.18;3.67;;;;;;;;;;5104892;28;20212;-75
2023/09/27 14:46:58;;;;;;;5.97;4.40;;;;;;;;;;5092318;28;20207;-76
2023/09/27 14:49:25;;;;;;;5.40;3.35;;;;;;;;;;5104627;28;20220;-75
2023/09/27 14:51:52;;;;;;;6.35;3.78;;;;;;;;;;5091560;28;20257;-76
2023/09/27 14:57:04;;;;;;;10.57;3.60;;;;;;;;;;5091755;28;20293;-76
2023/09/27 14:59:31;;;;;;;4.30;3.50;;;;;;;;;;5092864;28;20232;-75
2023/09/27 15:01:58;;;;;;;4.43;3.50;;;;;;;;;;5107360;28;20223;-75
2023/09/27 15:04:25;;;;;;;4.77;3.00;;;;;;;;;;5103143;28;20203;-76